Impacts TAF Board
For situational awareness. Not to be used for flight planning purposes.
IDs:

KCLT - Charlotte/Douglas In, NC, US

Issued at 0750 UTC 25 May 2020
Updated at 0812 UTC 25 May 2020
Potential Impact None Slight Moderate High
Time0752Z 25/09Z 25/10Z 25/11Z 25/12Z 25/13Z 25/14Z 25/15Z 25/16Z 25/17Z 25/18Z 25/19Z 25/20Z 25/21Z>>
Type OBS PRVL PRVL PRVL PRVL PRVL PRVL PRVL PRVL PRVL
  [PRB30]  
PRVL
  [PRB30]  
PRVL
  [PRB30]  
PRVL
  [PRB30]  
PRVL
  [PRB30]  
VIS 10 >6 >6 >6 >6 >6 >6 >6 >6 >6
  [4]  
>6
  [4]  
>6
  [4]  
>6
  [4]  
>6
  [4]  
CIG 180 190 7 7 7 7 7 7 7 15
  [7]  
15
  [7]  
15
  [7]  
15
  [7]  
15
  [7]  
Cover BKN BKN OVC OVC OVC OVC OVC OVC OVC OVC
  [OVC]  
OVC
  [OVC]  
OVC
  [OVC]  
OVC
  [OVC]  
OVC
  [OVC]  
FltCat VFR VFR IFR IFR IFR IFR IFR IFR IFR MVFR
  [IFR]  
MVFR
  [IFR]  
MVFR
  [IFR]  
MVFR
  [IFR]  
MVFR
  [IFR]  
WX -- -- -- -- -- -- -- -- -- -SHRA
  [TSRA BR]  
-SHRA
  [TSRA BR]  
-SHRA
  [TSRA BR]  
-SHRA
  [TSRA BR]  
-SHRA
  [TSRA BR]  
WDir 360 360 70 70 70 70 70 70 70 80
[80]
80
[80]
80
[80]
80
[80]
80
[80]
WSpd 4 5 4 4 4 4 4 4 4 7
  [7]  
7
  [7]  
7
  [7]  
7
  [7]  
7
  [7]  
WGst -- -- -- -- -- -- -- -- -- --
  [--]  
--
  [--]  
--
  [--]  
--
  [--]  
--
  [--]  
Raw TAF
KCLT 250750Z 2508/2612 36005KT P6SM FEW013 BKN190 BKN250
  FM251000 07004KT P6SM OVC007
  FM251700 08007KT P6SM -SHRA BKN015 OVC025
  PROB30 2517/2523 4SM TSRA BR OVC007CB
  FM252300 08008KT 6SM -SHRA BR OVC026
  FM260200 07006KT P6SM OVC015
  FM260600 08004KT 6SM BR OVC009


Raw METAR
KCLT 250752Z 36004KT 10SM FEW012 BKN180 BKN250 20/18 A3011 RMK AO2 SLP188 T02000178 $
KCLT 250652Z 36005KT 10SM FEW140 BKN190 BKN250 19/18 A3011 RMK AO2 SLP187 T01940178 $
KCLT 250552Z 35003KT 10SM FEW050 BKN140 20/18 A3010 RMK AO2 SLP184 T02000178 10228 20200 58012 $

METAR Board
Radar Display
Forecast Discussion
For situational awareness. Not to be used for flight planning purposes.